createdAt,value
2023-04-27T00:00:43.088Z,4.69
2023-04-27T00:03:12.149Z,4.70
2023-04-27T00:05:40.643Z,4.68
2023-04-27T00:08:09.060Z,4.69
2023-04-27T00:10:36.917Z,4.68
2023-04-27T00:13:05.159Z,4.71
2023-04-27T00:15:33.192Z,4.69
2023-04-27T00:18:02.258Z,4.65
2023-04-27T00:20:30.440Z,4.66
2023-04-27T00:22:58.500Z,4.66
2023-04-27T00:25:26.850Z,4.65
2023-04-27T00:27:55.723Z,4.65
2023-04-27T00:30:23.739Z,4.64
2023-04-27T00:32:51.651Z,4.63
2023-04-27T00:35:20.363Z,4.65
2023-04-27T00:37:48.332Z,4.60
2023-04-27T00:40:16.287Z,4.59
2023-04-27T00:42:44.704Z,4.56
2023-04-27T00:45:13.654Z,4.54
2023-04-27T00:47:42.374Z,4.52
2023-04-27T00:50:12.257Z,4.46
2023-04-27T00:52:40.852Z,4.43
2023-04-27T00:55:09.884Z,4.38
2023-04-27T00:57:38.280Z,4.33
2023-04-27T01:00:07.341Z,4.25
2023-04-27T01:02:37.811Z,4.14
2023-04-27T01:05:06.906Z,4.08
2023-04-27T01:07:38.815Z,3.96
2023-04-27T01:10:08.014Z,3.84
2023-04-27T01:12:36.736Z,3.79
2023-04-27T01:15:07.702Z,3.70
2023-04-27T01:17:36.005Z,3.64
2023-04-27T01:20:08.705Z,3.58
2023-04-27T01:22:38.526Z,3.54
2023-04-27T01:25:08.143Z,3.50
2023-04-27T01:27:36.114Z,3.43
2023-04-27T01:30:06.620Z,3.35
2023-04-27T01:32:38.309Z,3.28
2023-04-27T01:35:07.802Z,3.25
2023-04-27T01:37:36.350Z,3.15
2023-04-27T01:40:06.784Z,3.15
2023-04-27T01:42:35.462Z,3.11
2023-04-27T01:45:04.384Z,3.01
2023-04-27T01:47:33.040Z,2.95
2023-04-27T01:50:01.215Z,2.86
2023-04-27T01:52:30.942Z,2.72
2023-04-27T01:54:59.560Z,2.56
2023-04-27T01:57:28.522Z,2.42
2023-04-27T01:59:57.275Z,2.31
2023-04-27T02:02:25.599Z,2.25
2023-04-27T02:04:53.665Z,2.14
2023-04-27T02:07:21.667Z,2.15
2023-04-27T02:09:49.614Z,2.13
2023-04-27T02:12:17.677Z,2.05
2023-04-27T02:14:45.938Z,2.02
2023-04-27T02:17:13.764Z,2.00
2023-04-27T02:19:41.659Z,1.98
2023-04-27T02:22:09.699Z,1.93
2023-04-27T02:24:37.879Z,1.84
2023-04-27T02:27:06.251Z,1.78
2023-04-27T02:29:39.060Z,1.73
2023-04-27T02:32:07.763Z,1.65
2023-04-27T02:34:35.788Z,1.54
2023-04-27T02:37:04.140Z,1.50
2023-04-27T02:39:32.144Z,1.34
2023-04-27T02:42:00.049Z,1.29
2023-04-27T02:44:28.228Z,1.22
2023-04-27T02:46:56.263Z,1.14
2023-04-27T02:49:24.342Z,1.06
2023-04-27T02:51:52.632Z,1.01
2023-04-27T02:54:20.567Z,0.97
2023-04-27T02:56:48.778Z,0.92
2023-04-27T02:59:17.134Z,0.87
2023-04-27T03:01:45.647Z,0.81
2023-04-27T03:04:14.861Z,0.78
2023-04-27T03:06:46.705Z,0.74
2023-04-27T03:09:15.375Z,0.65
2023-04-27T03:11:44.215Z,0.57
2023-04-27T03:14:13.582Z,0.54
2023-04-27T03:16:41.841Z,0.51
2023-04-27T03:19:09.770Z,0.51
2023-04-27T03:21:37.927Z,0.49
2023-04-27T03:24:07.233Z,0.47
2023-04-27T03:26:35.136Z,0.48
2023-04-27T03:29:03.103Z,0.51
2023-04-27T03:31:31.295Z,0.51
2023-04-27T03:33:59.180Z,0.52
2023-04-27T03:36:27.577Z,0.50
2023-04-27T03:38:55.660Z,0.50
2023-04-27T03:41:24.189Z,0.45
2023-04-27T03:43:53.657Z,0.44
2023-04-27T03:46:21.987Z,0.44
2023-04-27T03:48:50.875Z,0.42
2023-04-27T03:51:19.459Z,0.32
2023-04-27T03:53:48.176Z,0.29
2023-04-27T03:56:16.431Z,0.31
2023-04-27T03:58:44.617Z,0.34
2023-04-27T04:01:23.167Z,0.45
2023-04-27T04:03:51.911Z,0.55
2023-04-27T04:06:20.110Z,0.59
2023-04-27T04:08:48.017Z,0.67
2023-04-27T04:11:16.527Z,0.74
2023-04-27T04:13:44.952Z,0.80
2023-04-27T04:16:14.162Z,0.88
2023-04-27T04:18:42.404Z,0.96
2023-04-27T04:21:12.266Z,1.08
2023-04-27T04:23:41.338Z,1.19
2023-04-27T04:26:10.114Z,1.32
2023-04-27T04:28:38.764Z,1.45
2023-04-27T04:31:09.747Z,1.61
2023-04-27T04:33:38.574Z,1.81
2023-04-27T04:36:07.857Z,2.10
2023-04-27T04:38:36.108Z,2.57
2023-04-27T04:41:04.478Z,3.05
2023-04-27T04:43:34.607Z,3.49
2023-04-27T04:46:06.698Z,3.53
2023-04-27T04:48:35.849Z,3.87
2023-04-27T04:51:07.236Z,4.08
2023-04-27T04:53:38.262Z,4.22
2023-04-27T04:56:14.457Z,4.55
2023-04-27T04:58:42.964Z,4.81
2023-04-27T05:01:11.857Z,4.72
2023-04-27T05:03:40.281Z,4.96
2023-04-27T05:06:08.834Z,5.34
2023-04-27T05:08:37.435Z,5.41
2023-04-27T05:11:05.456Z,5.31
2023-04-27T05:13:33.672Z,4.69
2023-04-27T05:16:07.965Z,5.16
2023-04-27T05:18:36.622Z,5.28
2023-04-27T05:21:05.211Z,5.41
2023-04-27T05:23:33.226Z,5.47
2023-04-27T05:26:01.573Z,5.64
2023-04-27T05:28:29.504Z,5.80
2023-04-27T05:30:57.427Z,5.76
2023-04-27T05:33:25.579Z,6.26
2023-04-27T05:35:53.582Z,6.47
2023-04-27T05:38:21.784Z,6.59
2023-04-27T05:41:00.154Z,6.58
2023-04-27T05:43:28.559Z,6.69
2023-04-27T05:45:56.834Z,6.68
2023-04-27T05:48:25.346Z,6.88
2023-04-27T05:51:13.666Z,6.87
2023-04-27T05:53:42.240Z,7.29
2023-04-27T05:56:11.837Z,7.64
2023-04-27T05:58:40.021Z,7.82
2023-04-27T06:01:08.590Z,7.95
2023-04-27T06:03:37.082Z,8.12
2023-04-27T06:06:05.552Z,8.40
2023-04-27T06:08:35.893Z,8.57
2023-04-27T06:11:03.943Z,8.63
2023-04-27T06:13:33.368Z,8.48
2023-04-27T06:16:02.196Z,8.31
2023-04-27T06:18:30.530Z,7.60
2023-04-27T06:21:02.310Z,8.36
2023-04-27T06:23:30.542Z,8.66
2023-04-27T06:25:59.129Z,9.21
2023-04-27T06:28:27.356Z,9.20
2023-04-27T06:30:55.652Z,9.33
2023-04-27T06:33:23.657Z,9.43
2023-04-27T06:35:52.049Z,9.21
2023-04-27T06:38:20.235Z,9.45
2023-04-27T06:40:52.394Z,9.81
2023-04-27T06:43:20.973Z,9.07
2023-04-27T06:45:48.994Z,9.61
2023-04-27T06:48:17.527Z,9.80
2023-04-27T06:50:45.683Z,10.08
2023-04-27T06:53:14.329Z,9.20
2023-04-27T06:55:44.960Z,10.18
2023-04-27T06:58:14.995Z,10.02
2023-04-27T07:00:42.911Z,10.44
2023-04-27T07:03:11.268Z,10.30
2023-04-27T07:05:39.988Z,10.50
2023-04-27T07:08:09.001Z,10.67
2023-04-27T07:10:37.513Z,10.15
2023-04-27T07:13:08.862Z,10.80
2023-04-27T07:15:37.480Z,10.85
2023-04-27T07:18:05.924Z,10.55
2023-04-27T07:20:34.046Z,11.24
2023-04-27T07:23:02.867Z,12.06
2023-04-27T07:25:31.369Z,12.43
2023-04-27T07:27:59.889Z,10.46
2023-04-27T07:30:31.120Z,9.66
2023-04-27T07:33:01.348Z,9.74
2023-04-27T07:35:29.928Z,11.37
2023-04-27T07:37:59.160Z,11.72
2023-04-27T07:40:28.521Z,12.67
2023-04-27T07:42:56.648Z,12.42
2023-04-27T07:45:32.330Z,12.27
2023-04-27T07:48:02.464Z,12.88
2023-04-27T07:50:31.893Z,13.65
2023-04-27T07:53:02.198Z,13.34
2023-04-27T07:55:30.914Z,13.49
2023-04-27T07:57:58.860Z,14.21
2023-04-27T08:00:27.270Z,14.50
2023-04-27T08:02:56.148Z,12.17
2023-04-27T08:05:24.813Z,12.79
2023-04-27T08:07:54.496Z,12.49
2023-04-27T08:10:23.533Z,13.49
2023-04-27T08:12:51.712Z,14.14
2023-04-27T08:15:22.616Z,13.71
2023-04-27T08:17:51.072Z,14.46
2023-04-27T08:20:19.418Z,13.30
2023-04-27T08:22:47.550Z,11.59
2023-04-27T08:25:16.040Z,12.89
2023-04-27T08:27:44.120Z,12.91
2023-04-27T08:30:12.965Z,13.66
2023-04-27T08:32:41.409Z,13.16
2023-04-27T08:35:09.804Z,12.78
2023-04-27T08:37:38.201Z,12.32
2023-04-27T08:40:10.546Z,11.32
2023-04-27T08:42:42.703Z,11.63
2023-04-27T08:45:11.489Z,11.19
2023-04-27T08:47:43.189Z,11.79
2023-04-27T08:50:13.066Z,12.42
2023-04-27T08:52:45.302Z,11.29
2023-04-27T08:55:16.675Z,11.55
2023-04-27T08:58:01.567Z,11.71
2023-04-27T09:00:41.942Z,12.48
2023-04-27T09:03:26.836Z,12.01
2023-04-27T09:06:03.618Z,12.61
2023-04-27T09:08:51.489Z,12.64
2023-04-27T09:11:35.198Z,12.52
2023-04-27T09:14:19.766Z,11.76
2023-04-27T09:16:57.811Z,12.47
2023-04-27T09:19:28.888Z,12.16
2023-04-27T09:22:11.879Z,12.24
2023-04-27T09:24:50.705Z,12.32
2023-04-27T09:27:23.483Z,13.09
2023-04-27T09:29:51.643Z,12.34
2023-04-27T09:32:23.170Z,12.84
2023-04-27T09:34:51.407Z,14.17
2023-04-27T09:37:19.468Z,13.36
2023-04-27T09:39:49.995Z,13.37
2023-04-27T09:42:18.545Z,13.35
2023-04-27T09:44:47.075Z,12.98
2023-04-27T09:47:15.294Z,11.70
2023-04-27T09:49:43.912Z,11.64
2023-04-27T09:52:12.553Z,11.24
2023-04-27T09:54:41.338Z,10.70
2023-04-27T09:57:38.257Z,11.73
2023-04-27T10:00:42.435Z,12.62
2023-04-27T10:03:43.907Z,12.55
2023-04-27T10:06:57.905Z,13.03
2023-04-27T10:09:30.974Z,13.55
2023-04-27T10:12:36.934Z,13.63
2023-04-27T10:15:17.641Z,14.15
2023-04-27T10:17:53.277Z,14.13
2023-04-27T10:20:36.403Z,13.28
2023-04-27T10:23:04.946Z,12.29
2023-04-27T10:25:41.801Z,12.19
2023-04-27T10:28:21.442Z,12.26
2023-04-27T10:30:50.437Z,12.56
2023-04-27T10:33:22.801Z,12.18
2023-04-27T10:36:00.719Z,12.17
2023-04-27T10:38:30.846Z,12.02
2023-04-27T10:41:05.945Z,11.31
2023-04-27T10:43:35.992Z,11.93
2023-04-27T10:46:16.875Z,12.05
2023-04-27T10:48:45.491Z,12.96
2023-04-27T10:51:17.711Z,13.41
2023-04-27T10:53:47.505Z,13.29
2023-04-27T10:56:15.557Z,13.76
2023-04-27T10:58:49.019Z,13.37
2023-04-27T11:01:28.000Z,13.03
2023-04-27T11:04:00.099Z,13.07
2023-04-27T11:06:35.202Z,13.04
2023-04-27T11:09:05.006Z,12.33
2023-04-27T11:11:33.024Z,11.26
2023-04-27T11:14:03.115Z,11.21
2023-04-27T11:16:34.581Z,10.88
2023-04-27T11:19:07.288Z,10.52
2023-04-27T11:21:35.409Z,11.19
2023-04-27T11:24:08.463Z,11.26
2023-04-27T11:26:36.784Z,11.33
2023-04-27T11:29:14.501Z,11.76
2023-04-27T11:31:49.434Z,11.64
2023-04-27T11:34:24.126Z,11.52
2023-04-27T11:37:10.823Z,12.26
2023-04-27T11:39:46.851Z,12.32
2023-04-27T11:42:19.849Z,11.76
2023-04-27T11:45:08.786Z,13.22
2023-04-27T11:47:38.187Z,13.12
2023-04-27T11:50:08.440Z,12.56
2023-04-27T11:52:40.325Z,12.27
2023-04-27T11:55:15.961Z,12.36
2023-04-27T11:57:45.104Z,12.49
2023-04-27T12:00:15.284Z,12.75
2023-04-27T12:02:44.768Z,12.88
2023-04-27T12:05:14.749Z,13.11
2023-04-27T12:07:43.682Z,12.85
2023-04-27T12:10:12.628Z,12.73
2023-04-27T12:12:41.277Z,12.79
2023-04-27T12:15:10.197Z,12.24
2023-04-27T12:17:39.838Z,12.24
2023-04-27T12:20:09.295Z,12.17
2023-04-27T12:22:38.256Z,11.97
2023-04-27T12:25:06.924Z,11.58
2023-04-27T12:27:35.142Z,11.82
2023-04-27T12:30:04.692Z,11.63
2023-04-27T12:32:33.310Z,11.88
2023-04-27T12:35:01.795Z,11.21
2023-04-27T12:37:30.625Z,11.75
2023-04-27T12:39:58.806Z,11.73
2023-04-27T12:42:27.236Z,11.68
2023-04-27T12:44:55.531Z,11.44
2023-04-27T12:49:55.302Z,12.16
2023-04-27T12:52:23.528Z,12.22
2023-04-27T12:54:58.073Z,11.93
2023-04-27T12:57:26.894Z,11.89
2023-04-27T12:59:55.155Z,11.93
2023-04-27T13:02:23.502Z,11.06
2023-04-27T13:04:52.129Z,11.21
2023-04-27T13:07:20.449Z,11.07
2023-04-27T13:09:48.826Z,10.71
2023-04-27T13:12:17.012Z,10.95
2023-04-27T13:14:46.839Z,10.80
2023-04-27T13:17:15.117Z,10.57
2023-04-27T13:19:43.500Z,10.22
2023-04-27T13:22:12.004Z,10.04
2023-04-27T13:24:39.954Z,10.32
2023-04-27T13:27:08.057Z,10.45
2023-04-27T13:29:35.954Z,10.66
2023-04-27T13:32:04.348Z,10.88
2023-04-27T13:34:32.870Z,10.57
2023-04-27T13:37:00.807Z,10.72
2023-04-27T13:39:30.507Z,10.63
2023-04-27T13:41:59.720Z,10.13
2023-04-27T13:44:27.659Z,10.26
2023-04-27T13:46:56.209Z,10.28
2023-04-27T13:49:24.716Z,10.74
2023-04-27T13:51:52.694Z,10.85
2023-04-27T13:54:21.923Z,10.78
2023-04-27T13:56:49.998Z,10.98
2023-04-27T13:59:18.026Z,11.52
2023-04-27T14:01:46.640Z,10.96
2023-04-27T14:04:14.931Z,10.83
2023-04-27T14:06:43.312Z,11.18
2023-04-27T14:09:12.309Z,10.88
2023-04-27T14:11:55.000Z,10.97
2023-04-27T14:14:24.424Z,10.62
2023-04-27T14:16:53.718Z,11.12
2023-04-27T14:19:22.744Z,11.06
2023-04-27T14:21:51.177Z,10.95
2023-04-27T14:24:20.830Z,11.14
2023-04-27T14:26:51.405Z,10.95
2023-04-27T14:29:19.980Z,10.35
2023-04-27T14:31:48.819Z,10.28
2023-04-27T14:34:19.587Z,10.16
2023-04-27T14:36:49.224Z,10.67
2023-04-27T14:39:17.248Z,10.61
2023-04-27T14:41:45.206Z,10.36
2023-04-27T14:44:13.825Z,10.68
2023-04-27T14:46:41.756Z,10.47
2023-04-27T14:49:09.768Z,10.17
2023-04-27T14:51:38.169Z,10.49
2023-04-27T14:54:06.415Z,10.47
2023-04-27T14:56:34.355Z,10.31
2023-04-27T14:59:03.888Z,10.16
2023-04-27T15:01:32.166Z,9.93
2023-04-27T15:04:01.497Z,10.41
2023-04-27T15:06:30.615Z,10.62
2023-04-27T15:08:58.978Z,10.64
2023-04-27T15:11:27.039Z,10.48
2023-04-27T15:13:55.381Z,10.28
2023-04-27T15:16:23.461Z,10.22
2023-04-27T15:18:51.691Z,10.31
2023-04-27T15:21:20.024Z,10.25
2023-04-27T15:23:47.969Z,10.45
2023-04-27T15:26:16.844Z,10.36
2023-04-27T15:28:45.064Z,10.49
2023-04-27T15:31:13.179Z,10.54
2023-04-27T15:33:41.699Z,10.55
2023-04-27T15:36:10.017Z,10.56
2023-04-27T15:38:38.081Z,10.75
2023-04-27T15:41:06.280Z,10.20
2023-04-27T15:43:34.487Z,10.36
2023-04-27T15:46:06.563Z,10.17
2023-04-27T15:48:35.603Z,10.64
2023-04-27T15:51:08.206Z,10.28
2023-04-27T15:53:38.288Z,10.61
2023-04-27T15:56:06.907Z,10.27
2023-04-27T15:58:34.980Z,9.93
2023-04-27T16:01:03.560Z,9.68
2023-04-27T16:03:33.425Z,9.70
2023-04-27T16:06:01.564Z,9.75
2023-04-27T16:08:30.926Z,9.66
2023-04-27T16:11:00.684Z,9.73
2023-04-27T16:13:28.662Z,9.55
2023-04-27T16:15:57.502Z,9.64
2023-04-27T16:18:25.548Z,9.74
2023-04-27T16:20:53.460Z,9.46
2023-04-27T16:23:21.951Z,9.48
2023-04-27T16:25:49.905Z,9.24
2023-04-27T16:28:18.703Z,9.34
2023-04-27T16:30:47.019Z,9.16
2023-04-27T16:33:15.256Z,8.87
2023-04-27T16:35:43.212Z,8.87
2023-04-27T16:38:11.378Z,8.76
2023-04-27T16:40:39.286Z,8.86
2023-04-27T16:43:07.309Z,8.83
2023-04-27T16:45:38.720Z,8.77
2023-04-27T16:48:06.992Z,8.76
2023-04-27T16:50:34.946Z,8.86
2023-04-27T16:53:08.459Z,8.83
2023-04-27T16:55:36.773Z,8.68
2023-04-27T16:58:04.973Z,8.62
2023-04-27T17:00:33.614Z,8.52
2023-04-27T17:03:01.798Z,8.68
2023-04-27T17:05:30.768Z,8.46
2023-04-27T17:07:58.945Z,8.53
2023-04-27T17:10:27.788Z,8.57
2023-04-27T17:12:55.782Z,8.47
2023-04-27T17:15:26.060Z,8.30
2023-04-27T17:17:54.299Z,8.30
2023-04-27T17:20:22.755Z,8.22
2023-04-27T17:22:51.073Z,8.09
2023-04-27T17:25:19.387Z,7.94
2023-04-27T17:27:47.542Z,7.94
2023-04-27T17:30:16.152Z,7.82
2023-04-27T17:32:44.509Z,7.73
2023-04-27T17:35:12.891Z,7.66
2023-04-27T17:37:41.276Z,7.59
2023-04-27T17:40:10.546Z,7.59
2023-04-27T17:42:38.794Z,7.60
2023-04-27T17:45:08.629Z,7.61
2023-04-27T17:47:37.619Z,7.58
2023-04-27T17:50:08.623Z,7.57
2023-04-27T17:52:36.939Z,7.53
2023-04-27T17:55:05.824Z,7.53
2023-04-27T17:57:34.170Z,7.47
2023-04-27T18:00:02.524Z,7.35
2023-04-27T18:02:38.081Z,7.21
2023-04-27T18:05:07.475Z,7.19
2023-04-27T18:07:40.104Z,7.18
2023-04-27T18:10:09.263Z,7.26
2023-04-27T18:12:37.574Z,7.13
2023-04-27T18:15:09.683Z,7.12
2023-04-27T18:17:38.930Z,7.10
2023-04-27T18:20:10.567Z,7.10
2023-04-27T18:22:40.462Z,7.10
2023-04-27T18:25:10.678Z,7.08
2023-04-27T18:27:38.844Z,7.10
2023-04-27T18:30:08.779Z,7.12
2023-04-27T18:32:37.319Z,7.10
2023-04-27T18:35:06.719Z,6.96
2023-04-27T18:37:36.449Z,6.93
2023-04-27T18:40:06.179Z,6.84
2023-04-27T18:42:34.522Z,6.80
2023-04-27T18:45:05.322Z,6.68
2023-04-27T18:47:33.494Z,6.60
2023-04-27T18:50:02.115Z,6.58
2023-04-27T18:52:32.381Z,6.52
2023-04-27T18:55:01.935Z,6.45
2023-04-27T18:57:30.103Z,6.40
2023-04-27T18:59:58.678Z,6.31
2023-04-27T19:02:27.137Z,6.27
2023-04-27T19:05:11.134Z,6.24
2023-04-27T19:07:41.571Z,6.26
2023-04-27T19:10:11.740Z,6.21
2023-04-27T19:12:40.789Z,6.16
2023-04-27T19:15:10.109Z,6.04
2023-04-27T19:17:38.966Z,5.89
2023-04-27T19:20:10.205Z,5.88
2023-04-27T19:22:39.337Z,5.81
2023-04-27T19:25:10.137Z,5.68
2023-04-27T19:27:38.877Z,5.60
2023-04-27T19:30:08.697Z,5.52
2023-04-27T19:32:36.979Z,5.49
2023-04-27T19:35:05.650Z,5.50
2023-04-27T19:37:36.330Z,5.50
2023-04-27T19:40:06.158Z,5.43
2023-04-27T19:42:34.970Z,5.37
2023-04-27T19:45:04.752Z,5.34
2023-04-27T19:47:33.448Z,5.31
2023-04-27T19:50:02.324Z,5.28
2023-04-27T19:52:31.226Z,5.14
2023-04-27T19:55:00.322Z,5.11
2023-04-27T19:57:28.863Z,5.09
2023-04-27T19:59:57.504Z,5.02
2023-04-27T20:02:25.951Z,4.92
2023-04-27T20:04:54.600Z,4.74
2023-04-27T20:07:23.223Z,4.65
2023-04-27T20:09:51.598Z,4.59
2023-04-27T20:12:40.324Z,4.45
2023-04-27T20:15:10.523Z,4.33
2023-04-27T20:17:39.033Z,4.25
2023-04-27T20:20:10.710Z,4.19
2023-04-27T20:22:39.372Z,4.21
2023-04-27T20:25:08.297Z,4.16
2023-04-27T20:27:37.091Z,4.15
2023-04-27T20:30:06.485Z,4.16
2023-04-27T20:32:35.655Z,4.21
2023-04-27T20:35:04.945Z,4.19
2023-04-27T20:37:33.013Z,4.18
2023-04-27T20:40:01.166Z,4.14
2023-04-27T20:42:29.861Z,4.16
2023-04-27T20:45:00.735Z,4.20
2023-04-27T20:47:29.130Z,4.20
2023-04-27T20:49:58.577Z,4.16
2023-04-27T20:52:30.571Z,4.16
2023-04-27T20:55:00.354Z,4.14
2023-04-27T20:57:28.651Z,4.17
2023-04-27T20:59:56.927Z,4.20
2023-04-27T21:02:25.298Z,4.22
2023-04-27T21:04:53.914Z,4.20
2023-04-27T21:07:22.544Z,4.32
2023-04-27T21:09:51.362Z,4.34
2023-04-27T21:12:19.558Z,4.36
2023-04-27T21:14:48.257Z,4.33
2023-04-27T21:17:17.021Z,4.31
2023-04-27T21:19:45.202Z,4.37
2023-04-27T21:22:13.553Z,4.33
2023-04-27T21:24:42.047Z,4.36
2023-04-27T21:27:11.127Z,4.43
2023-04-27T21:29:39.614Z,4.38
2023-04-27T21:32:08.778Z,4.35
2023-04-27T21:34:37.033Z,4.32
2023-04-27T21:37:05.373Z,4.31
2023-04-27T21:39:34.656Z,4.28
2023-04-27T21:42:03.422Z,4.22
2023-04-27T21:44:31.944Z,4.22
2023-04-27T21:47:02.510Z,4.23
2023-04-27T21:49:30.972Z,4.26
2023-04-27T21:51:58.872Z,4.27
2023-04-27T21:54:27.550Z,4.28
2023-04-27T21:56:55.630Z,4.30
2023-04-27T21:59:23.947Z,4.32
2023-04-27T22:01:52.325Z,4.34
2023-04-27T22:04:20.455Z,4.36
2023-04-27T22:06:49.242Z,4.38
2023-04-27T22:09:17.759Z,4.37
2023-04-27T22:11:46.646Z,4.37
2023-04-27T22:14:15.331Z,4.33
2023-04-27T22:16:43.919Z,4.32
2023-04-27T22:19:12.940Z,4.28
2023-04-27T22:21:41.358Z,4.31
2023-04-27T22:24:09.568Z,4.28
2023-04-27T22:26:37.705Z,4.28
2023-04-27T22:29:06.035Z,4.28
2023-04-27T22:31:34.421Z,4.27
2023-04-27T22:34:03.901Z,4.28
2023-04-27T22:36:33.284Z,4.23
2023-04-27T22:39:01.741Z,4.14
2023-04-27T22:41:29.697Z,4.09
2023-04-27T22:43:57.597Z,4.07
2023-04-27T22:46:25.805Z,4.03
2023-04-27T22:48:54.076Z,4.07
2023-04-27T22:51:23.722Z,4.07
2023-04-27T22:53:51.788Z,4.10
2023-04-27T22:56:20.013Z,4.10
2023-04-27T22:58:47.976Z,4.02
2023-04-27T23:01:17.257Z,4.01
2023-04-27T23:03:45.459Z,4.00
2023-04-27T23:06:16.692Z,3.97
2023-04-27T23:08:47.175Z,3.97
2023-04-27T23:11:15.601Z,3.94
2023-04-27T23:13:44.077Z,3.88
2023-04-27T23:16:12.118Z,3.83
2023-04-27T23:18:40.525Z,3.77
2023-04-27T23:21:10.444Z,3.75
2023-04-27T23:23:38.610Z,3.74
2023-04-27T23:26:14.373Z,3.70
2023-04-27T23:28:44.339Z,3.66
2023-04-27T23:31:12.345Z,3.59
2023-04-27T23:33:40.531Z,3.54
2023-04-27T23:36:08.936Z,3.51
2023-04-27T23:38:37.158Z,3.48
2023-04-27T23:41:05.405Z,3.45
2023-04-27T23:43:34.250Z,3.40
2023-04-27T23:46:02.655Z,3.37
2023-04-27T23:48:30.580Z,3.34
2023-04-27T23:51:03.525Z,3.26
2023-04-27T23:53:31.793Z,3.22
2023-04-27T23:55:59.697Z,3.18
2023-04-27T23:58:28.298Z,3.09
